Terminal Aerodrome Forecast
Issued by NWS Jackson, MS

Home | Current Version | Previous Version | Text Only | Print | Product List | Glossary On
Versions: 1 2 3 4 5 6 7 8 9 10 11 12 13 14 15 16 17
142
FTUS44 KJAN 300003 RRA
TAFHBG
TAF
KHBG 300003Z 3000/3024 16007KT P6SM SCT050 BKN120
     FM301000 17005KT 2SM BR OVC007
     FM301200 15007KT 2SM BR OVC003
     FM301400 17010KT 5SM BR OVC015
     FM301500 18013KT P6SM OVC025
     FM301600 18014G20KT P6SM OVC050=

USA.gov is the U.S. government's official web portal to all federal, state and local government web resources and services.